sensor_id;sensor_type;location;lat;lon;timestamp;temperature;humidity
20698;DHT22;10508;50.956;4.640;2023-12-22T00:02:20;10.00;99.90
20698;DHT22;10508;50.956;4.640;2023-12-22T00:04:46;9.70;99.90
20698;DHT22;10508;50.956;4.640;2023-12-22T00:07:12;9.80;99.90
20698;DHT22;10508;50.956;4.640;2023-12-22T00:09:38;9.80;99.90
20698;DHT22;10508;50.956;4.640;2023-12-22T00:12:04;9.80;99.90
20698;DHT22;10508;50.956;4.640;2023-12-22T00:14:30;9.80;99.90
20698;DHT22;10508;50.956;4.640;2023-12-22T00:16:55;9.80;99.90
20698;DHT22;10508;50.956;4.640;2023-12-22T00:19:21;9.80;99.90
20698;DHT22;10508;50.956;4.640;2023-12-22T00:21:46;9.90;99.90
20698;DHT22;10508;50.956;4.640;2023-12-22T00:24:12;10.00;99.90
20698;DHT22;10508;50.956;4.640;2023-12-22T00:26:38;9.90;99.90
20698;DHT22;10508;50.956;4.640;2023-12-22T00:29:09;9.80;99.90
20698;DHT22;10508;50.956;4.640;2023-12-22T00:31:35;9.80;99.90
20698;DHT22;10508;50.956;4.640;2023-12-22T00:34:00;9.80;99.90
20698;DHT22;10508;50.956;4.640;2023-12-22T00:36:26;9.80;99.90
20698;DHT22;10508;50.956;4.640;2023-12-22T00:38:52;9.80;99.90
20698;DHT22;10508;50.956;4.640;2023-12-22T00:41:18;9.80;99.90
20698;DHT22;10508;50.956;4.640;2023-12-22T00:43:43;9.80;99.90
20698;DHT22;10508;50.956;4.640;2023-12-22T00:46:09;9.70;99.90
20698;DHT22;10508;50.956;4.640;2023-12-22T00:48:35;9.80;99.90
20698;DHT22;10508;50.956;4.640;2023-12-22T00:51:00;9.70;99.90
20698;DHT22;10508;50.956;4.640;2023-12-22T00:53:26;9.70;99.90
20698;DHT22;10508;50.956;4.640;2023-12-22T00:55:52;9.70;99.90
20698;DHT22;10508;50.956;4.640;2023-12-22T00:58:17;9.70;99.90
20698;DHT22;10508;50.956;4.640;2023-12-22T01:05:57;9.70;99.90
20698;DHT22;10508;50.956;4.640;2023-12-22T01:08:23;9.70;99.90
20698;DHT22;10508;50.956;4.640;2023-12-22T01:10:48;9.70;99.90
20698;DHT22;10508;50.956;4.640;2023-12-22T01:13:14;9.70;99.90
20698;DHT22;10508;50.956;4.640;2023-12-22T01:15:40;9.70;99.90
20698;DHT22;10508;50.956;4.640;2023-12-22T01:18:06;9.70;99.90
20698;DHT22;10508;50.956;4.640;2023-12-22T01:20:33;9.70;99.90
20698;DHT22;10508;50.956;4.640;2023-12-22T01:22:59;9.70;99.90
20698;DHT22;10508;50.956;4.640;2023-12-22T01:25:25;9.70;99.90
20698;DHT22;10508;50.956;4.640;2023-12-22T01:27:50;9.70;99.90
20698;DHT22;10508;50.956;4.640;2023-12-22T01:30:18;9.50;99.90
20698;DHT22;10508;50.956;4.640;2023-12-22T01:32:44;9.60;99.90
20698;DHT22;10508;50.956;4.640;2023-12-22T01:35:09;9.50;99.90
20698;DHT22;10508;50.956;4.640;2023-12-22T01:37:38;9.50;99.90
20698;DHT22;10508;50.956;4.640;2023-12-22T01:40:04;9.50;99.90
20698;DHT22;10508;50.956;4.640;2023-12-22T01:42:30;9.50;99.90
20698;DHT22;10508;50.956;4.640;2023-12-22T01:44:56;9.50;99.90
20698;DHT22;10508;50.956;4.640;2023-12-22T01:47:22;9.60;99.90
20698;DHT22;10508;50.956;4.640;2023-12-22T01:49:48;9.60;99.90
20698;DHT22;10508;50.956;4.640;2023-12-22T01:52:15;9.60;99.90
20698;DHT22;10508;50.956;4.640;2023-12-22T01:54:41;9.70;99.90
20698;DHT22;10508;50.956;4.640;2023-12-22T01:57:07;9.70;99.90
20698;DHT22;10508;50.956;4.640;2023-12-22T01:59:34;9.70;99.90
20698;DHT22;10508;50.956;4.640;2023-12-22T02:02:02;9.70;99.90
20698;DHT22;10508;50.956;4.640;2023-12-22T02:04:28;9.70;99.90
20698;DHT22;10508;50.956;4.640;2023-12-22T02:06:55;9.80;99.90
20698;DHT22;10508;50.956;4.640;2023-12-22T02:09:22;9.80;99.90
20698;DHT22;10508;50.956;4.640;2023-12-22T02:11:48;9.80;99.90
20698;DHT22;10508;50.956;4.640;2023-12-22T02:14:13;9.80;99.90
20698;DHT22;10508;50.956;4.640;2023-12-22T02:16:52;9.80;99.90
20698;DHT22;10508;50.956;4.640;2023-12-22T02:22:06;9.80;99.90
20698;DHT22;10508;50.956;4.640;2023-12-22T02:24:32;9.90;99.90
20698;DHT22;10508;50.956;4.640;2023-12-22T02:30:12;9.90;99.90
20698;DHT22;10508;50.956;4.640;2023-12-22T02:32:42;10.00;99.90
20698;DHT22;10508;50.956;4.640;2023-12-22T02:35:15;9.90;99.90
20698;DHT22;10508;50.956;4.640;2023-12-22T02:37:43;9.90;99.90
20698;DHT22;10508;50.956;4.640;2023-12-22T02:40:11;9.90;99.90
20698;DHT22;10508;50.956;4.640;2023-12-22T02:42:38;9.80;99.90
20698;DHT22;10508;50.956;4.640;2023-12-22T02:45:12;9.90;99.90
20698;DHT22;10508;50.956;4.640;2023-12-22T02:47:38;9.80;99.90
20698;DHT22;10508;50.956;4.640;2023-12-22T02:50:04;9.80;99.90
20698;DHT22;10508;50.956;4.640;2023-12-22T02:52:30;9.80;99.90
20698;DHT22;10508;50.956;4.640;2023-12-22T02:54:57;9.90;99.90
20698;DHT22;10508;50.956;4.640;2023-12-22T02:57:22;10.00;99.90
20698;DHT22;10508;50.956;4.640;2023-12-22T02:59:48;9.90;99.90
20698;DHT22;10508;50.956;4.640;2023-12-22T03:02:14;9.90;99.90
20698;DHT22;10508;50.956;4.640;2023-12-22T03:04:39;9.90;99.90
20698;DHT22;10508;50.956;4.640;2023-12-22T03:07:05;9.90;99.90
20698;DHT22;10508;50.956;4.640;2023-12-22T03:09:31;9.90;99.90
20698;DHT22;10508;50.956;4.640;2023-12-22T03:11:57;9.90;99.90
20698;DHT22;10508;50.956;4.640;2023-12-22T03:14:32;9.90;99.90
20698;DHT22;10508;50.956;4.640;2023-12-22T03:17:06;9.90;99.90
20698;DHT22;10508;50.956;4.640;2023-12-22T03:19:32;9.90;99.90
20698;DHT22;10508;50.956;4.640;2023-12-22T03:21:58;9.90;99.90
20698;DHT22;10508;50.956;4.640;2023-12-22T03:24:25;9.90;99.90
20698;DHT22;10508;50.956;4.640;2023-12-22T03:26:51;9.90;99.90
20698;DHT22;10508;50.956;4.640;2023-12-22T03:29:17;9.90;99.90
20698;DHT22;10508;50.956;4.640;2023-12-22T03:31:43;9.80;99.90
20698;DHT22;10508;50.956;4.640;2023-12-22T03:34:09;9.10;99.90
20698;DHT22;10508;50.956;4.640;2023-12-22T03:36:35;9.80;99.90
20698;DHT22;10508;50.956;4.640;2023-12-22T03:39:01;9.80;99.90
20698;DHT22;10508;50.956;4.640;2023-12-22T03:41:28;9.80;99.90
20698;DHT22;10508;50.956;4.640;2023-12-22T03:43:57;9.80;99.90
20698;DHT22;10508;50.956;4.640;2023-12-22T03:46:23;9.80;99.90
20698;DHT22;10508;50.956;4.640;2023-12-22T03:48:50;9.70;99.90
20698;DHT22;10508;50.956;4.640;2023-12-22T03:51:16;9.70;99.90
20698;DHT22;10508;50.956;4.640;2023-12-22T03:53:42;9.70;99.90
20698;DHT22;10508;50.956;4.640;2023-12-22T03:56:08;9.70;99.90
20698;DHT22;10508;50.956;4.640;2023-12-22T03:58:35;9.80;99.90
20698;DHT22;10508;50.956;4.640;2023-12-22T04:01:01;9.70;99.90
20698;DHT22;10508;50.956;4.640;2023-12-22T04:03:26;9.80;99.90
20698;DHT22;10508;50.956;4.640;2023-12-22T04:05:53;9.70;99.90
20698;DHT22;10508;50.956;4.640;2023-12-22T04:08:19;9.80;99.90
20698;DHT22;10508;50.956;4.640;2023-12-22T04:10:46;9.70;99.90
20698;DHT22;10508;50.956;4.640;2023-12-22T04:13:12;9.70;99.90
20698;DHT22;10508;50.956;4.640;2023-12-22T04:15:38;9.70;99.90
20698;DHT22;10508;50.956;4.640;2023-12-22T04:18:04;9.70;99.90
20698;DHT22;10508;50.956;4.640;2023-12-22T04:25:23;9.60;99.90
20698;DHT22;10508;50.956;4.640;2023-12-22T04:27:51;9.50;99.90
20698;DHT22;10508;50.956;4.640;2023-12-22T04:30:17;9.70;99.90
20698;DHT22;10508;50.956;4.640;2023-12-22T04:35:09;9.70;99.90
20698;DHT22;10508;50.956;4.640;2023-12-22T04:37:34;9.60;99.90
20698;DHT22;10508;50.956;4.640;2023-12-22T05:31:29;9.40;99.90
20698;DHT22;10508;50.956;4.640;2023-12-22T05:33:56;9.40;99.90
20698;DHT22;10508;50.956;4.640;2023-12-22T05:36:22;9.40;99.90
20698;DHT22;10508;50.956;4.640;2023-12-22T05:38:47;9.40;99.90
20698;DHT22;10508;50.956;4.640;2023-12-22T05:41:13;9.40;99.90
20698;DHT22;10508;50.956;4.640;2023-12-22T05:43:39;9.50;99.90
20698;DHT22;10508;50.956;4.640;2023-12-22T05:46:04;9.50;99.90
20698;DHT22;10508;50.956;4.640;2023-12-22T05:48:30;9.50;99.90
20698;DHT22;10508;50.956;4.640;2023-12-22T05:50:56;9.50;99.90
20698;DHT22;10508;50.956;4.640;2023-12-22T05:53:23;9.50;99.90
20698;DHT22;10508;50.956;4.640;2023-12-22T05:55:48;9.60;99.90
20698;DHT22;10508;50.956;4.640;2023-12-22T05:58:14;9.60;99.90
20698;DHT22;10508;50.956;4.640;2023-12-22T06:00:40;9.60;99.90
20698;DHT22;10508;50.956;4.640;2023-12-22T06:03:05;9.70;99.90
20698;DHT22;10508;50.956;4.640;2023-12-22T06:05:31;9.70;99.90
20698;DHT22;10508;50.956;4.640;2023-12-22T06:07:57;9.70;99.90
20698;DHT22;10508;50.956;4.640;2023-12-22T06:10:23;9.70;99.90
20698;DHT22;10508;50.956;4.640;2023-12-22T06:12:48;9.70;99.90
20698;DHT22;10508;50.956;4.640;2023-12-22T06:15:14;9.80;99.90
20698;DHT22;10508;50.956;4.640;2023-12-22T06:17:40;9.80;99.90
20698;DHT22;10508;50.956;4.640;2023-12-22T06:20:06;9.90;99.90
20698;DHT22;10508;50.956;4.640;2023-12-22T06:22:32;9.80;99.90
20698;DHT22;10508;50.956;4.640;2023-12-22T06:24:58;9.80;99.90
20698;DHT22;10508;50.956;4.640;2023-12-22T06:27:23;9.90;99.90
20698;DHT22;10508;50.956;4.640;2023-12-22T06:29:49;9.90;99.90
20698;DHT22;10508;50.956;4.640;2023-12-22T06:32:15;9.90;99.90
20698;DHT22;10508;50.956;4.640;2023-12-22T06:34:42;9.90;99.90
20698;DHT22;10508;50.956;4.640;2023-12-22T06:37:08;9.80;99.90
20698;DHT22;10508;50.956;4.640;2023-12-22T06:39:34;9.80;99.90
20698;DHT22;10508;50.956;4.640;2023-12-22T06:41:59;9.80;99.90
20698;DHT22;10508;50.956;4.640;2023-12-22T06:44:25;9.70;99.90
20698;DHT22;10508;50.956;4.640;2023-12-22T06:46:51;9.70;99.90
20698;DHT22;10508;50.956;4.640;2023-12-22T06:51:44;9.60;99.90
20698;DHT22;10508;50.956;4.640;2023-12-22T06:54:10;9.60;99.90
20698;DHT22;10508;50.956;4.640;2023-12-22T06:56:36;9.50;99.90
20698;DHT22;10508;50.956;4.640;2023-12-22T06:59:02;9.50;99.90
20698;DHT22;10508;50.956;4.640;2023-12-22T07:06:28;9.60;99.90
20698;DHT22;10508;50.956;4.640;2023-12-22T07:11:43;9.50;99.90
20698;DHT22;10508;50.956;4.640;2023-12-22T07:14:09;9.50;99.90
20698;DHT22;10508;50.956;4.640;2023-12-22T07:16:35;9.50;99.90
20698;DHT22;10508;50.956;4.640;2023-12-22T07:19:01;9.50;99.90
20698;DHT22;10508;50.956;4.640;2023-12-22T13:02:24;11.10;99.90
20698;DHT22;10508;50.956;4.640;2023-12-22T13:04:49;11.10;99.90
20698;DHT22;10508;50.956;4.640;2023-12-22T13:07:24;11.10;99.90
20698;DHT22;10508;50.956;4.640;2023-12-22T13:09:50;11.10;99.90
20698;DHT22;10508;50.956;4.640;2023-12-22T13:12:16;11.10;99.90
20698;DHT22;10508;50.956;4.640;2023-12-22T13:14:42;11.10;99.90
20698;DHT22;10508;50.956;4.640;2023-12-22T13:17:08;11.10;99.90
20698;DHT22;10508;50.956;4.640;2023-12-22T13:19:35;11.20;99.90
20698;DHT22;10508;50.956;4.640;2023-12-22T13:22:01;11.20;99.90
20698;DHT22;10508;50.956;4.640;2023-12-22T13:24:27;11.20;99.90
20698;DHT22;10508;50.956;4.640;2023-12-22T13:27:01;11.20;99.90
20698;DHT22;10508;50.956;4.640;2023-12-22T13:29:27;11.20;99.90
20698;DHT22;10508;50.956;4.640;2023-12-22T13:31:54;11.20;99.90
20698;DHT22;10508;50.956;4.640;2023-12-22T13:34:20;11.20;99.90
20698;DHT22;10508;50.956;4.640;2023-12-22T13:36:46;11.20;99.90
20698;DHT22;10508;50.956;4.640;2023-12-22T13:39:12;11.20;99.90
20698;DHT22;10508;50.956;4.640;2023-12-22T13:41:42;11.20;99.90
20698;DHT22;10508;50.956;4.640;2023-12-22T13:44:14;11.20;99.90
20698;DHT22;10508;50.956;4.640;2023-12-22T13:46:40;11.20;99.90
20698;DHT22;10508;50.956;4.640;2023-12-22T13:49:09;11.10;99.90
20698;DHT22;10508;50.956;4.640;2023-12-22T13:51:45;11.10;99.90
20698;DHT22;10508;50.956;4.640;2023-12-22T13:54:13;11.10;99.90
20698;DHT22;10508;50.956;4.640;2023-12-22T13:56:39;11.00;99.90
20698;DHT22;10508;50.956;4.640;2023-12-22T13:59:09;11.00;99.90
20698;DHT22;10508;50.956;4.640;2023-12-22T14:01:36;10.90;99.90
20698;DHT22;10508;50.956;4.640;2023-12-22T14:04:02;11.00;99.90
20698;DHT22;10508;50.956;4.640;2023-12-22T14:06:28;10.90;99.90
20698;DHT22;10508;50.956;4.640;2023-12-22T14:08:54;11.00;99.90
20698;DHT22;10508;50.956;4.640;2023-12-22T14:11:21;11.00;99.90
20698;DHT22;10508;50.956;4.640;2023-12-22T14:13:47;11.00;99.90
20698;DHT22;10508;50.956;4.640;2023-12-22T14:16:12;11.00;99.90
20698;DHT22;10508;50.956;4.640;2023-12-22T14:18:39;11.10;99.90
20698;DHT22;10508;50.956;4.640;2023-12-22T14:21:04;11.10;99.90
20698;DHT22;10508;50.956;4.640;2023-12-22T14:23:31;11.10;99.90
20698;DHT22;10508;50.956;4.640;2023-12-22T14:25:57;11.20;99.90
20698;DHT22;10508;50.956;4.640;2023-12-22T14:28:23;11.20;99.90
20698;DHT22;10508;50.956;4.640;2023-12-22T14:30:49;11.20;99.90
20698;DHT22;10508;50.956;4.640;2023-12-22T14:33:14;11.10;99.90
20698;DHT22;10508;50.956;4.640;2023-12-22T14:35:40;11.10;99.90
20698;DHT22;10508;50.956;4.640;2023-12-22T14:38:06;11.20;99.90
20698;DHT22;10508;50.956;4.640;2023-12-22T14:40:32;11.20;99.90
20698;DHT22;10508;50.956;4.640;2023-12-22T14:42:58;11.20;99.90
20698;DHT22;10508;50.956;4.640;2023-12-22T14:45:24;11.20;99.90
20698;DHT22;10508;50.956;4.640;2023-12-22T14:47:50;11.20;99.90
20698;DHT22;10508;50.956;4.640;2023-12-22T14:50:17;11.30;99.90
20698;DHT22;10508;50.956;4.640;2023-12-22T14:52:43;11.30;99.90
20698;DHT22;10508;50.956;4.640;2023-12-22T14:55:10;11.30;99.90
20698;DHT22;10508;50.956;4.640;2023-12-22T14:57:36;11.30;99.90
20698;DHT22;10508;50.956;4.640;2023-12-22T15:00:02;11.30;99.90
20698;DHT22;10508;50.956;4.640;2023-12-22T15:02:28;11.30;99.90
20698;DHT22;10508;50.956;4.640;2023-12-22T15:04:54;11.30;99.90
20698;DHT22;10508;50.956;4.640;2023-12-22T15:07:20;11.30;99.90
20698;DHT22;10508;50.956;4.640;2023-12-22T15:09:46;11.30;99.90
20698;DHT22;10508;50.956;4.640;2023-12-22T15:12:17;11.30;99.90
20698;DHT22;10508;50.956;4.640;2023-12-22T15:14:46;11.30;99.90
20698;DHT22;10508;50.956;4.640;2023-12-22T15:17:13;11.30;99.90
20698;DHT22;10508;50.956;4.640;2023-12-22T15:19:42;11.30;99.90
20698;DHT22;10508;50.956;4.640;2023-12-22T15:22:11;11.40;99.90
20698;DHT22;10508;50.956;4.640;2023-12-22T15:24:43;11.40;99.90
20698;DHT22;10508;50.956;4.640;2023-12-22T15:27:10;11.30;99.90
20698;DHT22;10508;50.956;4.640;2023-12-22T15:29:36;11.40;99.90
20698;DHT22;10508;50.956;4.640;2023-12-22T15:32:01;11.40;99.90
20698;DHT22;10508;50.956;4.640;2023-12-22T15:34:28;11.40;99.90
20698;DHT22;10508;50.956;4.640;2023-12-22T15:36:54;11.40;99.90
20698;DHT22;10508;50.956;4.640;2023-12-22T15:39:19;11.40;99.90
20698;DHT22;10508;50.956;4.640;2023-12-22T15:41:46;11.40;99.90
20698;DHT22;10508;50.956;4.640;2023-12-22T15:44:12;11.40;99.90
20698;DHT22;10508;50.956;4.640;2023-12-22T15:46:38;11.40;99.90
20698;DHT22;10508;50.956;4.640;2023-12-22T15:49:03;11.40;99.90
20698;DHT22;10508;50.956;4.640;2023-12-22T15:51:29;11.50;99.90
20698;DHT22;10508;50.956;4.640;2023-12-22T15:53:55;11.60;99.90
20698;DHT22;10508;50.956;4.640;2023-12-22T15:56:20;11.50;99.90
20698;DHT22;10508;50.956;4.640;2023-12-22T15:58:46;11.50;99.90
20698;DHT22;10508;50.956;4.640;2023-12-22T16:01:12;11.50;99.90
20698;DHT22;10508;50.956;4.640;2023-12-22T16:03:40;11.50;99.90
20698;DHT22;10508;50.956;4.640;2023-12-22T16:06:07;11.50;99.90
20698;DHT22;10508;50.956;4.640;2023-12-22T16:08:33;11.50;99.90
20698;DHT22;10508;50.956;4.640;2023-12-22T16:11:01;11.50;99.90
20698;DHT22;10508;50.956;4.640;2023-12-22T16:13:28;11.50;99.90
20698;DHT22;10508;50.956;4.640;2023-12-22T16:15:58;11.60;99.90
20698;DHT22;10508;50.956;4.640;2023-12-22T16:18:24;11.50;99.90
20698;DHT22;10508;50.956;4.640;2023-12-22T16:20:50;11.50;99.90
20698;DHT22;10508;50.956;4.640;2023-12-22T16:23:15;11.50;99.90
20698;DHT22;10508;50.956;4.640;2023-12-22T16:25:50;11.60;99.90
20698;DHT22;10508;50.956;4.640;2023-12-22T16:28:21;11.60;99.90
20698;DHT22;10508;50.956;4.640;2023-12-22T16:30:48;11.60;99.90
20698;DHT22;10508;50.956;4.640;2023-12-22T16:33:14;11.50;99.90
20698;DHT22;10508;50.956;4.640;2023-12-22T16:35:41;11.60;99.90
20698;DHT22;10508;50.956;4.640;2023-12-22T16:38:07;11.60;99.90
20698;DHT22;10508;50.956;4.640;2023-12-22T16:40:33;11.60;99.90
20698;DHT22;10508;50.956;4.640;2023-12-22T16:42:58;11.50;99.90
20698;DHT22;10508;50.956;4.640;2023-12-22T16:45:24;11.50;99.90
20698;DHT22;10508;50.956;4.640;2023-12-22T16:47:50;11.50;99.90
20698;DHT22;10508;50.956;4.640;2023-12-22T16:50:16;11.50;99.90
20698;DHT22;10508;50.956;4.640;2023-12-22T16:52:42;11.60;99.90
20698;DHT22;10508;50.956;4.640;2023-12-22T16:55:08;11.50;99.90
20698;DHT22;10508;50.956;4.640;2023-12-22T16:57:34;11.50;99.90
20698;DHT22;10508;50.956;4.640;2023-12-22T17:00:03;11.60;99.90
20698;DHT22;10508;50.956;4.640;2023-12-22T17:02:29;11.60;99.90
20698;DHT22;10508;50.956;4.640;2023-12-22T17:04:54;11.50;99.90
20698;DHT22;10508;50.956;4.640;2023-12-22T17:07:20;11.50;99.90
20698;DHT22;10508;50.956;4.640;2023-12-22T17:09:46;11.50;99.90
20698;DHT22;10508;50.956;4.640;2023-12-22T17:12:12;11.50;99.90
20698;DHT22;10508;50.956;4.640;2023-12-22T17:14:37;11.50;99.90
20698;DHT22;10508;50.956;4.640;2023-12-22T17:17:03;11.50;99.90
20698;DHT22;10508;50.956;4.640;2023-12-22T17:19:29;11.50;99.90
20698;DHT22;10508;50.956;4.640;2023-12-22T17:21:55;11.50;99.90
20698;DHT22;10508;50.956;4.640;2023-12-22T17:24:20;11.40;99.90
20698;DHT22;10508;50.956;4.640;2023-12-22T17:26:46;11.40;99.90
20698;DHT22;10508;50.956;4.640;2023-12-22T17:29:12;11.50;99.90
20698;DHT22;10508;50.956;4.640;2023-12-22T17:31:37;11.50;99.90
20698;DHT22;10508;50.956;4.640;2023-12-22T17:34:03;11.50;99.90
20698;DHT22;10508;50.956;4.640;2023-12-22T17:36:29;11.50;99.90
20698;DHT22;10508;50.956;4.640;2023-12-22T17:38:58;11.50;99.90
20698;DHT22;10508;50.956;4.640;2023-12-22T17:41:24;11.50;99.90
20698;DHT22;10508;50.956;4.640;2023-12-22T17:43:49;11.50;99.90
20698;DHT22;10508;50.956;4.640;2023-12-22T17:46:15;11.50;99.90
20698;DHT22;10508;50.956;4.640;2023-12-22T17:48:41;11.50;99.90
20698;DHT22;10508;50.956;4.640;2023-12-22T17:51:07;11.50;99.90
20698;DHT22;10508;50.956;4.640;2023-12-22T17:53:33;11.50;99.90
20698;DHT22;10508;50.956;4.640;2023-12-22T17:55:59;11.50;99.90
20698;DHT22;10508;50.956;4.640;2023-12-22T17:58:25;11.50;99.90
20698;DHT22;10508;50.956;4.640;2023-12-22T18:00:51;11.50;99.90
20698;DHT22;10508;50.956;4.640;2023-12-22T18:03:17;11.50;99.90
20698;DHT22;10508;50.956;4.640;2023-12-22T18:05:42;11.50;99.90
20698;DHT22;10508;50.956;4.640;2023-12-22T18:08:11;11.50;99.90
20698;DHT22;10508;50.956;4.640;2023-12-22T18:10:37;11.50;99.90
20698;DHT22;10508;50.956;4.640;2023-12-22T18:13:06;11.50;99.90
20698;DHT22;10508;50.956;4.640;2023-12-22T18:15:32;11.50;99.90
20698;DHT22;10508;50.956;4.640;2023-12-22T18:17:57;11.50;99.90
20698;DHT22;10508;50.956;4.640;2023-12-22T18:20:23;11.50;99.90
20698;DHT22;10508;50.956;4.640;2023-12-22T18:22:49;11.50;99.90
20698;DHT22;10508;50.956;4.640;2023-12-22T18:25:15;11.50;99.90
20698;DHT22;10508;50.956;4.640;2023-12-22T18:27:41;11.50;99.90
20698;DHT22;10508;50.956;4.640;2023-12-22T18:30:07;11.50;99.90
20698;DHT22;10508;50.956;4.640;2023-12-22T18:32:33;11.50;99.90
20698;DHT22;10508;50.956;4.640;2023-12-22T18:35:00;11.50;99.90
20698;DHT22;10508;50.956;4.640;2023-12-22T18:37:26;11.50;99.90
20698;DHT22;10508;50.956;4.640;2023-12-22T18:39:51;11.50;99.90
20698;DHT22;10508;50.956;4.640;2023-12-22T18:42:17;11.50;99.90
20698;DHT22;10508;50.956;4.640;2023-12-22T18:44:43;11.50;99.90
20698;DHT22;10508;50.956;4.640;2023-12-22T18:47:09;11.50;99.90
20698;DHT22;10508;50.956;4.640;2023-12-22T18:49:34;11.50;99.90
20698;DHT22;10508;50.956;4.640;2023-12-22T18:52:00;11.50;99.90
20698;DHT22;10508;50.956;4.640;2023-12-22T18:54:27;11.50;99.90
20698;DHT22;10508;50.956;4.640;2023-12-22T18:56:55;11.50;99.90
20698;DHT22;10508;50.956;4.640;2023-12-22T18:59:21;11.50;99.90
20698;DHT22;10508;50.956;4.640;2023-12-22T19:01:47;11.50;99.90
20698;DHT22;10508;50.956;4.640;2023-12-22T19:04:12;11.60;99.90
20698;DHT22;10508;50.956;4.640;2023-12-22T19:06:38;11.50;99.90
20698;DHT22;10508;50.956;4.640;2023-12-22T19:09:04;11.50;99.90
20698;DHT22;10508;50.956;4.640;2023-12-22T19:11:30;11.50;99.90
20698;DHT22;10508;50.956;4.640;2023-12-22T19:13:55;11.50;99.90
20698;DHT22;10508;50.956;4.640;2023-12-22T19:16:21;11.50;99.90
20698;DHT22;10508;50.956;4.640;2023-12-22T19:18:47;11.50;99.90
20698;DHT22;10508;50.956;4.640;2023-12-22T19:21:14;11.50;99.90
20698;DHT22;10508;50.956;4.640;2023-12-22T19:23:43;11.50;99.90
20698;DHT22;10508;50.956;4.640;2023-12-22T19:26:08;11.50;99.90
20698;DHT22;10508;50.956;4.640;2023-12-22T19:28:34;11.50;99.90
20698;DHT22;10508;50.956;4.640;2023-12-22T19:31:00;11.50;99.90
20698;DHT22;10508;50.956;4.640;2023-12-22T19:33:26;11.60;99.90
20698;DHT22;10508;50.956;4.640;2023-12-22T19:35:52;11.50;99.90
20698;DHT22;10508;50.956;4.640;2023-12-22T19:38:18;11.50;99.90
20698;DHT22;10508;50.956;4.640;2023-12-22T19:40:47;11.50;99.90
20698;DHT22;10508;50.956;4.640;2023-12-22T19:43:16;11.50;99.90
20698;DHT22;10508;50.956;4.640;2023-12-22T19:45:42;11.60;99.90
20698;DHT22;10508;50.956;4.640;2023-12-22T19:48:08;11.60;99.90
20698;DHT22;10508;50.956;4.640;2023-12-22T19:50:34;11.50;99.90
20698;DHT22;10508;50.956;4.640;2023-12-22T19:53:00;11.50;99.90
20698;DHT22;10508;50.956;4.640;2023-12-22T19:55:26;11.50;99.90
20698;DHT22;10508;50.956;4.640;2023-12-22T19:57:53;11.50;99.90
20698;DHT22;10508;50.956;4.640;2023-12-22T20:00:19;11.50;99.90
20698;DHT22;10508;50.956;4.640;2023-12-22T20:02:45;11.50;99.90
20698;DHT22;10508;50.956;4.640;2023-12-22T20:05:11;11.50;99.90
20698;DHT22;10508;50.956;4.640;2023-12-22T20:10:05;11.40;99.90
20698;DHT22;10508;50.956;4.640;2023-12-22T20:12:31;11.50;99.90
20698;DHT22;10508;50.956;4.640;2023-12-22T20:14:58;11.40;99.90
20698;DHT22;10508;50.956;4.640;2023-12-22T20:17:23;11.50;99.90
20698;DHT22;10508;50.956;4.640;2023-12-22T20:19:49;11.40;99.90
20698;DHT22;10508;50.956;4.640;2023-12-22T20:22:15;11.40;99.90
20698;DHT22;10508;50.956;4.640;2023-12-22T20:24:41;11.40;99.90
20698;DHT22;10508;50.956;4.640;2023-12-22T20:27:07;11.40;99.90
20698;DHT22;10508;50.956;4.640;2023-12-22T20:29:33;11.40;99.90
20698;DHT22;10508;50.956;4.640;2023-12-22T20:31:58;11.40;99.90
20698;DHT22;10508;50.956;4.640;2023-12-22T20:34:24;11.40;99.90
20698;DHT22;10508;50.956;4.640;2023-12-22T20:36:50;11.40;99.90
20698;DHT22;10508;50.956;4.640;2023-12-22T20:39:16;11.40;99.90
20698;DHT22;10508;50.956;4.640;2023-12-22T20:41:42;11.40;99.90
20698;DHT22;10508;50.956;4.640;2023-12-22T20:44:07;11.40;99.90
20698;DHT22;10508;50.956;4.640;2023-12-22T20:46:33;11.40;99.90
20698;DHT22;10508;50.956;4.640;2023-12-22T20:48:59;11.40;99.90
20698;DHT22;10508;50.956;4.640;2023-12-22T20:51:25;11.40;99.90
20698;DHT22;10508;50.956;4.640;2023-12-22T20:53:51;11.40;99.90
20698;DHT22;10508;50.956;4.640;2023-12-22T20:56:18;11.40;99.90
20698;DHT22;10508;50.956;4.640;2023-12-22T20:58:44;11.40;99.90
20698;DHT22;10508;50.956;4.640;2023-12-22T21:01:10;11.40;99.90
20698;DHT22;10508;50.956;4.640;2023-12-22T21:03:35;11.40;99.90
20698;DHT22;10508;50.956;4.640;2023-12-22T21:06:07;11.40;99.90
20698;DHT22;10508;50.956;4.640;2023-12-22T21:08:33;11.40;99.90
20698;DHT22;10508;50.956;4.640;2023-12-22T21:10:59;11.40;99.90
20698;DHT22;10508;50.956;4.640;2023-12-22T21:13:25;11.30;99.90
20698;DHT22;10508;50.956;4.640;2023-12-22T21:15:50;11.30;99.90
20698;DHT22;10508;50.956;4.640;2023-12-22T21:18:16;11.30;99.90
20698;DHT22;10508;50.956;4.640;2023-12-22T21:20:41;11.20;99.90
20698;DHT22;10508;50.956;4.640;2023-12-22T21:23:07;11.20;99.90
20698;DHT22;10508;50.956;4.640;2023-12-22T21:25:34;11.20;99.90
20698;DHT22;10508;50.956;4.640;2023-12-22T21:28:00;11.10;99.90
20698;DHT22;10508;50.956;4.640;2023-12-22T21:30:26;11.10;99.90
20698;DHT22;10508;50.956;4.640;2023-12-22T21:32:54;11.10;99.90
20698;DHT22;10508;50.956;4.640;2023-12-22T21:35:19;11.00;99.90
20698;DHT22;10508;50.956;4.640;2023-12-22T21:37:45;11.00;99.90
20698;DHT22;10508;50.956;4.640;2023-12-22T21:40:15;11.00;99.90
20698;DHT22;10508;50.956;4.640;2023-12-22T21:42:42;11.00;99.90
20698;DHT22;10508;50.956;4.640;2023-12-22T21:45:11;11.00;99.90
20698;DHT22;10508;50.956;4.640;2023-12-22T21:47:37;11.00;99.90
20698;DHT22;10508;50.956;4.640;2023-12-22T21:50:04;11.00;99.90
20698;DHT22;10508;50.956;4.640;2023-12-22T21:52:29;11.10;99.90
20698;DHT22;10508;50.956;4.640;2023-12-22T21:54:55;11.10;99.90
20698;DHT22;10508;50.956;4.640;2023-12-22T21:57:21;11.10;99.90
20698;DHT22;10508;50.956;4.640;2023-12-22T21:59:46;11.10;99.90
20698;DHT22;10508;50.956;4.640;2023-12-22T22:02:14;11.10;99.90
20698;DHT22;10508;50.956;4.640;2023-12-22T22:04:40;11.20;99.90
20698;DHT22;10508;50.956;4.640;2023-12-22T22:07:10;11.20;99.90
20698;DHT22;10508;50.956;4.640;2023-12-22T22:09:36;11.20;99.90
20698;DHT22;10508;50.956;4.640;2023-12-22T22:12:02;11.10;99.90
20698;DHT22;10508;50.956;4.640;2023-12-22T22:14:27;11.20;99.90
20698;DHT22;10508;50.956;4.640;2023-12-22T22:16:53;11.20;99.90
20698;DHT22;10508;50.956;4.640;2023-12-22T22:19:19;11.10;99.90
20698;DHT22;10508;50.956;4.640;2023-12-22T22:21:44;11.10;99.90
20698;DHT22;10508;50.956;4.640;2023-12-22T22:24:10;11.10;99.90
20698;DHT22;10508;50.956;4.640;2023-12-22T22:26:40;11.10;99.90
20698;DHT22;10508;50.956;4.640;2023-12-22T22:29:06;11.10;99.90
20698;DHT22;10508;50.956;4.640;2023-12-22T22:31:50;11.10;99.90
20698;DHT22;10508;50.956;4.640;2023-12-22T22:34:17;11.10;99.90
20698;DHT22;10508;50.956;4.640;2023-12-22T22:36:43;11.10;99.90